Time;durP1;ratioP1;P1;durP2;ratioP2;P2;SDS_P1;SDS_P2;PMS_P1;PMS_P2;Temp;Humidity;BMP_temperature;BMP_pressure;BME280_temperature;BME280_humidity;BME280_pressure;Samples;Min_cycle;Max_cycle;Signal;HPM_P1;HPM_P2
2023/12/29 00:00:41;;;;;;;;;0.00;0.00;;;;;15.13;100.00;100962.47;2088980;28;44784;-60
2023/12/29 00:01:42;;;;;;;;;3.00;3.00;;;;;15.12;100.00;100958.03;2089518;28;45026;-62
2023/12/29 00:02:42;;;;;;;;;5.00;3.00;;;;;15.14;100.00;100961.56;2089663;28;44826;-60
2023/12/29 00:03:42;;;;;;;;;27.25;24.00;;;;;15.14;100.00;100956.19;2089448;28;44919;-61
2023/12/29 00:04:43;;;;;;;;;37.75;32.50;;;;;15.16;100.00;100960.56;2089358;28;44941;-61
2023/12/29 00:05:43;;;;;;;;;39.25;33.25;;;;;15.18;100.00;100956.03;2089398;28;44846;-62
2023/12/29 00:06:43;;;;;;;;;69.00;55.75;;;;;15.19;100.00;100971.13;2089258;28;45157;-61
2023/12/29 00:07:44;;;;;;;;;34.00;30.75;;;;;15.20;100.00;100961.31;2089531;28;45080;-60
2023/12/29 00:08:44;;;;;;;;;15.50;15.50;;;;;15.21;100.00;100960.38;2089481;28;45126;-61
2023/12/29 00:09:44;;;;;;;;;9.00;9.00;;;;;15.20;100.00;100956.84;2081375;28;44905;-63
2023/12/29 00:10:45;;;;;;;;;7.00;7.00;;;;;15.20;100.00;100962.19;2089223;28;44950;-62
2023/12/29 00:11:50;;;;;;;;;6.67;4.33;;;;;15.22;100.00;100959.44;2089359;28;44860;-62
2023/12/29 00:12:51;;;;;;;;;4.75;3.25;;;;;15.21;100.00;100960.38;2088215;28;45032;-60
2023/12/29 00:13:51;;;;;;;;;6.67;5.33;;;;;15.22;100.00;100954.09;2089370;28;45278;-60
2023/12/29 00:14:51;;;;;;;;;5.67;5.67;;;;;15.21;100.00;100957.69;2089659;28;44901;-61
2023/12/29 00:15:52;;;;;;;;;14.00;14.00;;;;;15.22;100.00;100956.78;2089551;28;44883;-61
2023/12/29 00:16:57;;;;;;;;;7.00;7.00;;;;;15.23;100.00;100966.53;2089553;28;44883;-60
2023/12/29 00:17:57;;;;;;;;;5.00;5.00;;;;;15.23;100.00;100970.09;2089053;28;44890;-61
2023/12/29 00:18:57;;;;;;;;;9.67;9.67;;;;;15.22;100.00;100960.31;2090156;28;44760;-60
2023/12/29 00:19:58;;;;;;;;;5.00;4.00;;;;;15.22;100.00;100963.00;2089524;28;44886;-61
2023/12/29 00:20:58;;;;;;;;;5.00;3.00;;;;;15.23;100.00;100963.84;2089476;28;44838;-61
2023/12/29 00:21:59;;;;;;;;;8.00;7.33;;;;;15.21;100.00;100969.28;2089577;28;44972;-61
2023/12/29 00:23:00;;;;;;;;;8.00;4.75;;;;;15.23;100.00;100966.53;2088849;28;44965;-62
2023/12/29 00:24:00;;;;;;;;;5.67;4.00;;;;;15.21;100.00;100969.28;2088632;28;45048;-61
2023/12/29 00:25:00;;;;;;;;;8.00;8.00;;;;;15.24;100.00;100973.63;2097410;28;44833;-60
2023/12/29 00:26:01;;;;;;;;;6.67;4.33;;;;;15.24;100.00;100968.28;2097108;28;44990;-62
2023/12/29 00:27:01;;;;;;;;;4.67;4.00;;;;;15.23;100.00;100971.88;2089304;28;44939;-60
2023/12/29 00:28:02;;;;;;;;;4.00;4.00;;;;;15.28;100.00;100975.28;2089382;28;44952;-59
2023/12/29 00:29:03;;;;;;;;;7.50;5.25;;;;;15.29;100.00;100975.22;2089643;28;44763;-61
2023/12/29 00:30:04;;;;;;;;;4.00;2.00;;;;;15.29;100.00;100985.91;2089158;28;44810;-61
2023/12/29 00:31:05;;;;;;;;;4.00;4.00;;;;;15.26;100.00;100978.00;2089641;28;44759;-62
2023/12/29 00:32:05;;;;;;;;;11.50;10.50;;;;;15.32;100.00;100982.25;2089444;28;44950;-60
2023/12/29 00:33:06;;;;;;;;;8.00;8.00;;;;;15.34;100.00;100984.84;2089187;28;44918;-61
2023/12/29 00:34:06;;;;;;;;;5.00;4.67;;;;;15.36;100.00;100983.88;2089244;28;44790;-61
2023/12/29 00:35:07;;;;;;;;;9.00;8.00;;;;;15.37;100.00;100982.94;2089566;28;44779;-61
2023/12/29 00:36:07;;;;;;;;;3.00;3.00;;;;;15.38;100.00;100990.06;2089583;28;44881;-61
2023/12/29 00:37:08;;;;;;;;;2.00;2.00;;;;;15.38;100.00;100979.34;2089436;28;44834;-61
2023/12/29 00:38:08;;;;;;;;;3.00;3.00;;;;;15.39;100.00;100980.22;2089101;28;44951;-59
2023/12/29 00:39:09;;;;;;;;;2.00;2.00;;;;;15.38;100.00;100976.69;2089546;28;44888;-59
2023/12/29 00:40:09;;;;;;;;;3.00;3.00;;;;;15.39;100.00;100978.44;2089289;28;44930;-59
2023/12/29 00:41:10;;;;;;;;;5.67;5.33;;;;;15.39;100.00;100978.44;2071875;28;44872;-58
2023/12/29 00:42:10;;;;;;;;;2.00;2.00;;;;;15.40;100.00;100985.53;2071975;28;44856;-61
2023/12/29 00:43:10;;;;;;;;;2.00;2.00;;;;;15.42;100.00;100980.09;2089341;28;44773;-61
2023/12/29 00:44:11;;;;;;;;;2.67;2.67;;;;;15.41;100.00;100975.69;2089325;28;44917;-60
2023/12/29 00:45:11;;;;;;;;;3.67;3.67;;;;;15.43;100.00;100968.47;2089279;28;44977;-61
2023/12/29 00:46:14;;;;;;;;;2.00;2.00;;;;;15.42;100.00;100980.97;2080563;28;45091;-58
2023/12/29 00:47:15;;;;;;;;;2.00;2.00;;;;;15.41;100.00;100965.88;2080135;28;44806;-60
2023/12/29 00:48:15;;;;;;;;;2.00;2.00;;;;;15.42;100.00;100978.31;2089336;28;44961;-60
2023/12/29 00:49:15;;;;;;;;;2.67;2.67;;;;;15.44;100.00;100956.84;2089160;28;44894;-60
2023/12/29 00:50:16;;;;;;;;;4.67;3.00;;;;;15.42;100.00;100967.59;2096603;28;44874;-60
2023/12/29 00:51:16;;;;;;;;;3.00;2.33;;;;;15.42;100.00;100964.94;2096689;28;44870;-61
2023/12/29 00:52:17;;;;;;;;;1.67;1.67;;;;;15.38;100.00;100963.31;2079341;28;44947;-61
2023/12/29 00:53:17;;;;;;;;;3.00;3.00;;;;;15.31;100.00;100962.66;2079579;28;45566;-60
2023/12/29 00:54:17;;;;;;;;;2.67;2.67;;;;;15.32;100.00;100958.19;2096687;28;44870;-61
2023/12/29 00:55:18;;;;;;;;;3.00;1.00;;;;;15.31;100.00;100953.75;2096588;28;45074;-61
2023/12/29 00:56:18;;;;;;;;;4.33;2.67;;;;;15.30;100.00;100950.22;2096581;28;44875;-60
2023/12/29 00:57:19;;;;;;;;;3.00;3.00;;;;;15.31;100.00;100959.97;2096738;28;44918;-62
2023/12/29 00:58:19;;;;;;;;;5.00;4.00;;;;;15.31;100.00;100949.28;2096431;28;45454;-60
2023/12/29 00:59:20;;;;;;;;;3.00;2.00;;;;;15.31;100.00;100951.97;2102289;28;44879;-58
2023/12/29 01:00:20;;;;;;;;;3.67;2.00;;;;;15.31;100.00;100949.28;2096559;28;44852;-60
2023/12/29 01:01:20;;;;;;;;;4.00;3.00;;;;;15.33;100.00;100954.56;2096846;28;44966;-60
2023/12/29 01:02:21;;;;;;;;;2.00;2.00;;;;;15.32;100.00;100959.06;2096647;28;44760;-60
2023/12/29 01:03:21;;;;;;;;;3.33;2.33;;;;;15.32;100.00;100964.41;2096308;28;44839;-61
2023/12/29 01:04:21;;;;;;;;;6.67;3.00;;;;;15.32;100.00;100967.06;2096637;28;44769;-59
2023/12/29 01:05:22;;;;;;;;;3.00;2.00;;;;;15.31;100.00;100969.81;2096754;28;44926;-60
2023/12/29 01:06:23;;;;;;;;;1.33;1.33;;;;;15.33;100.00;100967.94;2096900;28;44883;-60
2023/12/29 01:07:23;;;;;;;;;1.25;1.25;;;;;15.31;100.00;100959.97;2096495;28;44835;-59
2023/12/29 01:08:23;;;;;;;;;3.00;3.00;;;;;15.32;100.00;100960.84;2096823;28;44875;-59
2023/12/29 01:09:24;;;;;;;;;2.00;2.00;;;;;15.31;100.00;100957.31;2096603;28;45001;-59
2023/12/29 01:10:24;;;;;;;;;3.00;3.00;;;;;15.31;100.00;100954.63;2096813;28;45123;-60
2023/12/29 01:11:24;;;;;;;;;5.00;2.33;;;;;15.32;100.00;100956.38;2096326;28;45054;-61
2023/12/29 01:12:25;;;;;;;;;1.00;1.00;;;;;15.32;100.00;100959.06;2093746;28;44868;-60
2023/12/29 01:13:25;;;;;;;;;1.00;1.00;;;;;15.34;100.00;100958.13;2096555;28;45013;-61
2023/12/29 01:14:25;;;;;;;;;1.33;1.33;;;;;15.32;100.00;100953.69;2096964;28;44961;-61
2023/12/29 01:15:26;;;;;;;;;3.00;1.00;;;;;15.32;100.00;100945.69;2096595;28;45065;-62
2023/12/29 01:16:27;;;;;;;;;3.00;3.00;;;;;15.32;100.00;100951.03;2096473;28;44959;-60
2023/12/29 01:17:28;;;;;;;;;3.00;3.00;;;;;15.33;100.00;100941.22;2079237;28;44942;-60
2023/12/29 01:18:28;;;;;;;;;3.00;2.25;;;;;15.34;100.00;100944.75;2071449;28;44951;-61
2023/12/29 01:19:28;;;;;;;;;2.00;2.00;;;;;15.38;100.00;100938.38;2088399;28;45014;-60
2023/12/29 01:20:29;;;;;;;;;2.00;2.00;;;;;15.38;100.00;100936.56;2096479;28;45400;-60
2023/12/29 01:21:33;;;;;;;;;1.00;1.00;;;;;15.39;100.00;100932.97;2096302;28;44862;-59
2023/12/29 01:22:33;;;;;;;;;2.50;2.00;;;;;15.40;100.00;100933.84;2089020;28;44819;-61
2023/12/29 01:23:34;;;;;;;;;4.33;3.00;;;;;15.39;100.00;100935.66;2089385;28;45057;-61
2023/12/29 01:24:34;;;;;;;;;2.00;2.00;;;;;15.36;100.00;100932.19;2089110;28;44826;-61
2023/12/29 01:25:34;;;;;;;;;2.00;2.00;;;;;15.35;100.00;100938.47;2079462;28;44964;-61
2023/12/29 01:26:38;;;;;;;;;5.33;2.00;;;;;15.38;100.00;100941.06;2079916;28;44892;-60
2023/12/29 01:27:39;;;;;;;;;2.00;2.00;;;;;15.36;100.00;100943.75;2088960;28;44957;-58
2023/12/29 01:28:39;;;;;;;;;3.00;2.00;;;;;15.36;100.00;100929.50;2088994;28;44896;-60
2023/12/29 01:29:39;;;;;;;;;1.00;1.00;;;;;15.36;100.00;100933.06;2087661;28;45008;-60
2023/12/29 01:30:40;;;;;;;;;2.67;2.00;;;;;15.35;100.00;100936.66;2087850;28;45022;-60
2023/12/29 01:31:40;;;;;;;;;3.00;2.00;;;;;15.35;100.00;100936.66;2096920;28;44878;-60
2023/12/29 01:32:40;;;;;;;;;3.67;2.00;;;;;15.36;100.00;100935.72;2096736;28;45437;-57
2023/12/29 01:33:41;;;;;;;;;2.00;1.67;;;;;15.36;100.00;100932.19;2088972;28;44773;-59
2023/12/29 01:34:41;;;;;;;;;3.67;2.67;;;;;15.36;100.00;100938.41;2089056;28;44779;-59
2023/12/29 01:35:41;;;;;;;;;1.00;1.00;;;;;15.35;100.00;100936.66;2089171;28;45108;-60
2023/12/29 01:36:41;;;;;;;;;2.33;2.00;;;;;15.36;100.00;100938.41;2088937;28;44995;-60
2023/12/29 01:37:42;;;;;;;;;2.67;2.67;;;;;15.38;100.00;100930.34;2089152;28;44807;-60
2023/12/29 01:38:42;;;;;;;;;2.00;2.00;;;;;15.37;100.00;100933.94;2088727;28;45199;-60
2023/12/29 01:39:43;;;;;;;;;1.00;1.00;;;;;15.35;100.00;100939.34;2088971;28;45063;-60
2023/12/29 01:40:44;;;;;;;;;2.00;2.00;;;;;15.37;100.00;100933.94;2088850;28;44977;-60
2023/12/29 01:41:45;;;;;;;;;2.75;2.75;;;;;15.36;100.00;100930.38;2088986;28;44955;-60
2023/12/29 01:42:45;;;;;;;;;1.00;1.00;;;;;15.37;100.00;100931.25;2088737;28;44925;-59
2023/12/29 01:44:21;;;;;;;;;3.00;1.00;;;;;15.39;100.00;100935.66;2089149;28;44932;-59
2023/12/29 01:45:24;;;;;;;;;1.75;1.00;;;;;15.39;100.00;100934.78;2063168;28;45044;-61
2023/12/29 01:46:25;;;;;;;;;2.00;1.75;;;;;15.40;100.00;100937.38;2063055;28;44812;-58
2023/12/29 01:47:26;;;;;;;;;3.00;3.00;;;;;15.40;100.00;100941.84;2063033;28;44765;-60
2023/12/29 01:48:27;;;;;;;;;3.00;2.00;;;;;15.40;100.00;100939.19;2063160;28;44849;-59
2023/12/29 01:49:27;;;;;;;;;2.00;2.00;;;;;15.41;100.00;100943.59;2063282;28;44935;-59
2023/12/29 01:50:29;;;;;;;;;1.00;1.00;;;;;15.40;100.00;100940.06;2063331;28;44982;-59
2023/12/29 01:51:30;;;;;;;;;5.00;4.00;;;;;15.42;100.00;100942.66;2063197;28;45025;-60
2023/12/29 01:52:31;;;;;;;;;2.00;2.00;;;;;15.40;100.00;100940.06;2063137;28;44852;-60
2023/12/29 01:53:31;;;;;;;;;2.67;2.00;;;;;15.40;100.00;100945.41;2062978;28;45184;-59
2023/12/29 01:54:34;;;;;;;;;1.00;1.00;;;;;15.42;100.00;100940.00;2063055;28;44857;-60
2023/12/29 01:55:35;;;;;;;;;2.75;2.00;;;;;15.40;100.00;100941.84;2063327;28;45019;-60
2023/12/29 01:56:37;;;;;;;;;1.67;1.00;;;;;15.40;100.00;100945.41;2063280;28;44864;-60
2023/12/29 01:57:38;;;;;;;;;2.00;2.00;;;;;15.40;100.00;100942.72;2063013;28;44950;-60
2023/12/29 01:58:39;;;;;;;;;1.50;1.50;;;;;15.41;100.00;100947.16;2062925;28;44880;-60
2023/12/29 01:59:40;;;;;;;;;1.00;1.00;;;;;15.46;100.00;100942.47;2063058;28;44868;-59
2023/12/29 02:00:41;;;;;;;;;1.67;1.33;;;;;15.43;100.00;100945.28;2063185;28;44841;-61
2023/12/29 02:01:43;;;;;;;;;2.00;2.00;;;;;15.44;100.00;100946.16;2063077;28;44943;-61
2023/12/29 02:02:46;;;;;;;;;2.00;2.00;;;;;15.44;100.00;100939.00;2063426;28;44974;-60
2023/12/29 02:03:47;;;;;;;;;4.00;1.75;;;;;15.44;100.00;100947.03;2062688;28;44931;-61
2023/12/29 02:04:47;;;;;;;;;4.00;3.00;;;;;15.43;100.00;100939.94;2063299;28;45376;-60
2023/12/29 02:05:49;;;;;;;;;4.00;1.00;;;;;15.45;100.00;100935.41;2062952;28;45551;-61
2023/12/29 02:06:49;;;;;;;;;3.50;2.75;;;;;15.46;100.00;100933.59;2063237;28;45009;-59
2023/12/29 02:07:52;;;;;;;;;3.00;3.00;;;;;15.50;100.00;100940.56;2062860;28;45532;-61
2023/12/29 02:08:52;;;;;;;;;3.25;2.50;;;;;15.50;100.00;100944.13;2063164;28;44947;-61
2023/12/29 02:09:53;;;;;;;;;2.00;2.00;;;;;15.51;100.00;100942.31;2063071;28;44960;-58
2023/12/29 02:10:53;;;;;;;;;3.00;1.67;;;;;15.49;100.00;100933.47;2063330;28;44848;-60
2023/12/29 02:11:54;;;;;;;;;4.00;2.00;;;;;15.48;100.00;100943.28;2062593;28;44940;-60
2023/12/29 02:12:57;;;;;;;;;2.67;1.67;;;;;15.46;100.00;100934.47;2061954;28;44986;-60
2023/12/29 02:13:59;;;;;;;;;2.00;2.00;;;;;15.46;100.00;100937.13;2062696;28;45055;-60
2023/12/29 02:15:00;;;;;;;;;4.50;3.00;;;;;15.45;100.00;100932.72;2063142;28;44992;-61
2023/12/29 02:16:25;;;;;;;;;3.00;2.00;;;;;15.49;100.00;100936.13;2062820;28;44840;-60
2023/12/29 02:17:34;;;;;;;;;2.00;2.00;;;;;15.49;100.00;100925.44;2058587;28;45024;-60
2023/12/29 02:18:37;;;;;;;;;2.50;1.00;;;;;15.47;100.00;100936.19;2062801;28;44847;-60
2023/12/29 02:19:43;;;;;;;;;2.25;1.25;;;;;15.49;100.00;100931.66;2062529;28;45099;-59
2023/12/29 02:20:44;;;;;;;;;3.75;1.50;;;;;15.49;100.00;100933.47;2063177;28;44938;-61
2023/12/29 02:21:44;;;;;;;;;4.00;1.00;;;;;15.49;100.00;100936.13;2063419;28;44868;-61
2023/12/29 02:22:45;;;;;;;;;2.33;1.00;;;;;15.49;100.00;100937.00;2072500;28;44876;-62
2023/12/29 02:23:45;;;;;;;;;2.00;1.33;;;;;15.48;100.00;100943.28;2088705;28;44882;-60
2023/12/29 02:24:49;;;;;;;;;3.00;1.00;;;;;15.51;100.00;100936.97;2088383;28;45135;-60
2023/12/29 02:25:53;;;;;;;;;2.00;2.00;;;;;15.49;100.00;100937.00;2088759;28;45118;-61
2023/12/29 02:27:02;;;;;;;;;1.50;1.00;;;;;15.50;100.00;100943.22;2088617;28;45485;-61
2023/12/29 02:28:25;;;;;;;;;1.50;1.00;;;;;15.50;100.00;100933.44;2088115;28;44953;-60
2023/12/29 02:29:27;;;;;;;;;1.50;1.50;;;;;15.49;100.00;100933.47;2088350;28;44957;-60
2023/12/29 02:31:06;;;;;;;;;1.25;1.25;;;;;15.51;100.00;100934.31;2088381;28;44808;-59
2023/12/29 02:32:12;;;;;;;;;2.00;2.00;;;;;15.47;100.00;100928.19;2084667;28;44873;-59
2023/12/29 02:33:18;;;;;;;;;1.00;1.00;;;;;15.50;100.00;100929.84;2088422;28;44957;-59
2023/12/29 02:34:22;;;;;;;;;2.00;2.00;;;;;15.49;100.00;100931.66;2088663;28;44758;-60
2023/12/29 02:35:26;;;;;;;;;2.00;2.00;;;;;15.51;100.00;100934.31;2088679;28;44830;-59
2023/12/29 02:36:26;;;;;;;;;1.00;1.00;;;;;15.47;100.00;100933.53;2088678;28;44958;-59
2023/12/29 02:37:28;;;;;;;;;2.00;2.00;;;;;15.50;100.00;100933.44;2088708;28;44975;-61
2023/12/29 02:38:30;;;;;;;;;3.75;1.75;;;;;15.51;100.00;100932.50;2088542;28;45088;-59
2023/12/29 02:39:31;;;;;;;;;3.25;2.25;;;;;15.50;100.00;100933.44;2088801;28;44869;-61
2023/12/29 02:40:32;;;;;;;;;2.00;2.00;;;;;15.51;100.00;100934.31;2088616;28;45260;-60
2023/12/29 02:41:32;;;;;;;;;3.67;2.00;;;;;15.50;100.00;100928.09;2088607;28;45024;-60
2023/12/29 02:42:32;;;;;;;;;3.33;2.33;;;;;15.51;100.00;100927.16;2088566;28;44850;-60
2023/12/29 02:43:33;;;;;;;;;3.67;1.00;;;;;15.51;100.00;100928.94;2088466;28;44977;-61
2023/12/29 02:44:33;;;;;;;;;2.00;2.00;;;;;15.50;100.00;100925.41;2088831;28;44911;-58
2023/12/29 02:45:34;;;;;;;;;3.00;2.00;;;;;15.49;100.00;100920.97;2088839;28;44921;-61
2023/12/29 02:46:34;;;;;;;;;2.00;2.00;;;;;15.50;100.00;100924.50;2088890;28;44857;-59
2023/12/29 02:47:34;;;;;;;;;2.00;2.00;;;;;15.50;100.00;100924.50;2088779;28;44864;-59
2023/12/29 02:48:35;;;;;;;;;1.33;1.00;;;;;15.50;100.00;100928.09;2088477;28;45005;-59
2023/12/29 02:49:35;;;;;;;;;4.00;2.33;;;;;15.51;100.00;100924.47;2088408;28;44897;-60
2023/12/29 02:50:35;;;;;;;;;0.33;0.33;;;;;15.48;100.00;100924.56;2088219;28;44920;-59
2023/12/29 02:51:35;;;;;;;;;3.00;2.00;;;;;15.48;100.00;100926.38;2070725;28;44924;-60
2023/12/29 02:52:37;;;;;;;;;1.33;1.00;;;;;15.48;100.00;100913.88;2071495;28;45068;-61
2023/12/29 02:53:37;;;;;;;;;2.00;2.00;;;;;15.48;100.00;100918.34;2088161;28;44861;-60
2023/12/29 02:54:37;;;;;;;;;2.00;1.00;;;;;15.48;100.00;100921.03;2095746;28;44925;-59
2023/12/29 02:55:38;;;;;;;;;3.00;2.00;;;;;15.49;100.00;100928.97;2095846;28;44954;-60
2023/12/29 02:56:38;;;;;;;;;2.00;2.00;;;;;15.52;100.00;100917.31;2088576;28;45108;-60
2023/12/29 02:57:38;;;;;;;;;2.00;1.00;;;;;15.50;100.00;100909.38;2088192;28;45144;-62
2023/12/29 02:58:39;;;;;;;;;2.00;1.67;;;;;15.51;100.00;100911.09;2088489;28;44886;-61
2023/12/29 02:59:39;;;;;;;;;3.33;1.67;;;;;15.52;100.00;100901.28;2088444;28;44895;-60
2023/12/29 03:00:39;;;;;;;;;6.00;2.00;;;;;15.53;100.00;100903.00;2088224;28;45527;-59
2023/12/29 03:01:40;;;;;;;;;2.00;2.00;;;;;15.52;100.00;100902.13;2088163;28;44926;-59
2023/12/29 03:02:40;;;;;;;;;1.00;1.00;;;;;15.52;100.00;100899.47;2088647;28;45205;-62
2023/12/29 03:03:40;;;;;;;;;3.00;1.67;;;;;15.52;100.00;100901.28;2088411;28;44874;-61
2023/12/29 03:04:41;;;;;;;;;2.00;2.00;;;;;15.53;100.00;100897.66;2088890;28;44775;-60
2023/12/29 03:05:41;;;;;;;;;2.00;2.00;;;;;15.52;100.00;100887.91;2088435;28;44807;-59
2023/12/29 03:06:42;;;;;;;;;4.33;1.00;;;;;15.53;100.00;100895.84;2088284;28;44971;-60
2023/12/29 03:07:42;;;;;;;;;2.00;1.00;;;;;15.53;100.00;100893.19;2088270;28;44861;-61
2023/12/29 03:08:42;;;;;;;;;1.00;1.00;;;;;15.53;100.00;100895.84;2088539;28;44867;-60
2023/12/29 03:09:43;;;;;;;;;2.00;1.00;;;;;15.52;100.00;100886.09;2088511;28;45040;-61
2023/12/29 03:10:43;;;;;;;;;3.00;2.00;;;;;15.52;100.00;100896.78;2088192;28;45313;-60
2023/12/29 03:11:43;;;;;;;;;3.00;2.00;;;;;15.52;100.00;100894.13;2088428;28;45340;-59
2023/12/29 03:12:44;;;;;;;;;2.00;1.00;;;;;15.54;100.00;100891.38;2085421;28;45022;-60
2023/12/29 03:13:44;;;;;;;;;2.33;1.67;;;;;15.53;100.00;100890.50;2088128;28;44820;-60
2023/12/29 03:14:44;;;;;;;;;3.00;1.00;;;;;15.56;100.00;100895.72;2088107;28;44867;-61
2023/12/29 03:15:45;;;;;;;;;2.33;2.00;;;;;15.57;100.00;100889.44;2087605;28;44904;-62
2023/12/29 03:16:45;;;;;;;;;1.00;1.00;;;;;15.53;100.00;100890.50;2088450;28;45088;-61
2023/12/29 03:17:45;;;;;;;;;2.67;1.67;;;;;15.55;100.00;100887.78;2089048;28;44843;-60
2023/12/29 03:18:47;;;;;;;;;2.00;2.00;;;;;15.55;100.00;100890.44;2088153;28;44756;-60
2023/12/29 03:19:47;;;;;;;;;1.25;1.25;;;;;15.56;100.00;100887.69;2088424;28;44841;-60
2023/12/29 03:20:48;;;;;;;;;1.33;1.00;;;;;15.54;100.00;100886.91;2088363;28;44879;-60
2023/12/29 03:21:48;;;;;;;;;1.00;1.00;;;;;15.57;100.00;100894.78;2088756;28;44899;-61
2023/12/29 03:22:48;;;;;;;;;2.00;2.00;;;;;15.58;100.00;100893.00;2088178;28;44916;-61
2023/12/29 03:23:49;;;;;;;;;1.00;1.00;;;;;15.60;100.00;100893.81;2088362;28;44880;-61
2023/12/29 03:24:50;;;;;;;;;4.75;2.00;;;;;15.58;100.00;100896.53;2088112;28;44936;-59
2023/12/29 03:25:50;;;;;;;;;4.67;2.00;;;;;15.60;100.00;100894.69;2088479;28;44905;-59
2023/12/29 03:26:50;;;;;;;;;1.00;1.00;;;;;15.60;100.00;100897.38;2088200;28;44969;-60
2023/12/29 03:27:51;;;;;;;;;1.00;1.00;;;;;15.55;100.00;100893.13;2087806;28;44791;-59
2023/12/29 03:28:51;;;;;;;;;3.33;2.00;;;;;15.61;100.00;100890.22;2087698;28;44771;-61
2023/12/29 03:29:51;;;;;;;;;1.67;1.67;;;;;15.63;100.00;100891.06;2088055;28;45348;-61
2023/12/29 03:30:52;;;;;;;;;1.00;1.00;;;;;15.63;100.00;100887.50;2088479;28;44941;-61
2023/12/29 03:31:52;;;;;;;;;1.67;0.33;;;;;15.63;100.00;100890.19;2087840;28;44961;-60
2023/12/29 03:32:52;;;;;;;;;3.00;1.67;;;;;15.65;100.00;100894.53;2087669;28;44949;-61
2023/12/29 03:33:53;;;;;;;;;1.00;1.00;;;;;15.64;100.00;100895.47;2090953;28;44943;-59
2023/12/29 03:34:53;;;;;;;;;2.00;2.00;;;;;15.66;100.00;100890.94;2087093;28;44855;-61
2023/12/29 03:35:53;;;;;;;;;1.00;0.33;;;;;15.65;100.00;100883.84;2088107;28;45322;-61
2023/12/29 03:36:54;;;;;;;;;2.33;1.00;;;;;15.64;100.00;100887.44;2088343;28;44937;-61
2023/12/29 03:37:55;;;;;;;;;1.67;1.00;;;;;15.66;100.00;100880.22;2088074;28;44870;-61
2023/12/29 03:38:55;;;;;;;;;0.00;0.00;;;;;15.67;100.00;100889.13;2088138;28;44889;-61
2023/12/29 03:39:55;;;;;;;;;3.00;2.33;;;;;15.65;100.00;100882.97;2088393;28;44799;-60
2023/12/29 03:40:56;;;;;;;;;2.00;1.00;;;;;15.63;100.00;100879.50;2088552;28;44839;-60
2023/12/29 03:41:56;;;;;;;;;1.00;1.00;;;;;15.62;100.00;100883.06;2088438;28;44970;-60
2023/12/29 03:42:56;;;;;;;;;1.67;1.00;;;;;15.57;100.00;100883.22;2088176;28;44949;-60
2023/12/29 03:43:57;;;;;;;;;1.00;1.00;;;;;15.55;100.00;100879.75;2088070;28;44848;-61
2023/12/29 03:44:58;;;;;;;;;2.67;1.00;;;;;15.55;100.00;100882.41;2088180;28;45646;-61
2023/12/29 03:45:58;;;;;;;;;4.00;0.50;;;;;15.54;100.00;100876.19;2088050;28;44991;-59
2023/12/29 03:46:59;;;;;;;;;4.33;2.00;;;;;15.54;100.00;100884.22;2088652;28;44783;-60
2023/12/29 03:47:59;;;;;;;;;1.33;1.00;;;;;15.54;100.00;100873.53;2088109;28;44853;-58
2023/12/29 03:48:59;;;;;;;;;2.33;0.00;;;;;15.54;100.00;100881.53;2088332;28;44815;-60
2023/12/29 03:50:00;;;;;;;;;1.00;1.00;;;;;15.54;100.00;100875.34;2088152;28;44828;-61
2023/12/29 03:51:00;;;;;;;;;4.00;1.00;;;;;15.53;100.00;100882.47;2088082;28;44946;-60
2023/12/29 03:52:00;;;;;;;;;1.33;1.00;;;;;15.54;100.00;100872.66;2088108;28;44878;-59
2023/12/29 03:53:01;;;;;;;;;2.00;0.67;;;;;15.55;100.00;100871.72;2088183;28;45047;-61
2023/12/29 03:54:01;;;;;;;;;2.00;2.00;;;;;15.55;100.00;100869.91;2088227;28;45011;-60
2023/12/29 03:55:02;;;;;;;;;1.67;1.67;;;;;15.55;100.00;100871.72;2088413;28;44929;-59
2023/12/29 03:56:12;;;;;;;;;0.00;0.00;;;;;15.56;100.00;100871.66;2087906;28;44863;-60
2023/12/29 03:57:13;;;;;;;;;1.00;1.00;;;;;15.54;100.00;100883.34;2088270;28;44767;-62
2023/12/29 03:58:13;;;;;;;;;2.00;2.00;;;;;15.54;100.00;100875.34;2088031;28;44768;-59
2023/12/29 03:59:13;;;;;;;;;2.00;2.00;;;;;15.53;100.00;100874.47;2088040;28;44846;-62
2023/12/29 04:00:14;;;;;;;;;3.33;1.00;;;;;15.54;100.00;100876.19;2088160;28;44931;-60
2023/12/29 04:01:17;;;;;;;;;3.75;2.00;;;;;15.56;100.00;100871.66;2088274;28;44905;-62
2023/12/29 04:02:17;;;;;;;;;3.75;1.00;;;;;15.53;100.00;100862.88;2088275;28;44875;-60
2023/12/29 04:03:18;;;;;;;;;1.67;1.33;;;;;15.51;100.00;100879.00;2088079;28;45038;-59
2023/12/29 04:04:18;;;;;;;;;1.00;1.00;;;;;15.52;100.00;100861.16;2088137;28;44952;-60
2023/12/29 04:05:19;;;;;;;;;1.00;1.00;;;;;15.51;100.00;100859.41;2088070;28;46015;-61
2023/12/29 04:06:19;;;;;;;;;2.00;1.00;;;;;15.52;100.00;100866.50;2088312;28;44903;-60
2023/12/29 04:07:20;;;;;;;;;2.33;2.00;;;;;15.53;100.00;100869.09;2088232;28;44819;-60
2023/12/29 04:08:20;;;;;;;;;1.00;1.00;;;;;15.51;100.00;100852.25;2088210;28;44802;-61
2023/12/29 04:09:20;;;;;;;;;2.00;2.00;;;;;15.50;100.00;100861.22;2087935;28;44898;-60
2023/12/29 04:10:21;;;;;;;;;2.33;1.67;;;;;15.47;100.00;100866.66;2088587;28;44956;-61
2023/12/29 04:11:21;;;;;;;;;3.33;2.00;;;;;15.47;100.00;100869.34;2088133;28;45126;-61
2023/12/29 04:12:21;;;;;;;;;4.00;1.00;;;;;15.46;100.00;100866.72;2085223;28;44904;-61
2023/12/29 04:13:21;;;;;;;;;0.00;0.00;;;;;15.44;100.00;100865.91;2088180;28;45002;-59
2023/12/29 04:14:22;;;;;;;;;2.67;1.67;;;;;15.48;100.00;100854.16;2088101;28;44909;-60
2023/12/29 04:15:22;;;;;;;;;1.00;1.00;;;;;15.47;100.00;100857.75;2088047;28;44966;-60
2023/12/29 04:16:22;;;;;;;;;1.67;1.67;;;;;15.44;100.00;100864.13;2088357;28;45909;-60
2023/12/29 04:17:23;;;;;;;;;1.00;1.00;;;;;15.48;100.00;100865.72;2087796;28;44996;-59
2023/12/29 04:18:24;;;;;;;;;2.00;1.00;;;;;15.49;100.00;100854.09;2087644;28;44921;-61
2023/12/29 04:19:24;;;;;;;;;2.00;2.00;;;;;15.49;100.00;100850.56;2088082;28;44924;-61
2023/12/29 04:20:25;;;;;;;;;2.00;1.00;;;;;15.53;100.00;100853.06;2088091;28;44905;-58
2023/12/29 04:21:25;;;;;;;;;1.00;1.00;;;;;15.55;100.00;100853.00;2088233;28;44786;-60
2023/12/29 04:22:25;;;;;;;;;0.67;0.67;;;;;15.55;100.00;100855.66;2088361;28;44882;-60
2023/12/29 04:23:26;;;;;;;;;2.00;1.00;;;;;15.56;100.00;100847.59;2087971;28;45182;-61
2023/12/29 04:24:26;;;;;;;;;1.00;1.00;;;;;15.56;100.00;100855.59;2088113;28;45063;-60
2023/12/29 04:25:26;;;;;;;;;2.00;1.00;;;;;15.58;100.00;100853.72;2088161;28;44901;-61
2023/12/29 04:26:27;;;;;;;;;1.00;1.00;;;;;15.19;100.00;100852.63;2088098;28;44925;-60
2023/12/29 04:27:27;;;;;;;;;1.67;0.67;;;;;15.04;100.00;100846.06;2089141;28;44861;-61
2023/12/29 04:28:27;;;;;;;;;0.00;0.00;;;;;14.97;100.00;100856.09;2089467;28;45120;-62
2023/12/29 04:29:28;;;;;;;;;2.00;1.67;;;;;14.91;100.00;100848.34;2089389;28;44826;-60
2023/12/29 04:30:28;;;;;;;;;1.00;1.00;;;;;14.88;100.00;100845.78;2089767;28;45127;-60
2023/12/29 04:31:28;;;;;;;;;1.00;1.00;;;;;14.88;100.00;100855.59;2089664;28;44988;-60
2023/12/29 04:32:29;;;;;;;;;1.00;1.00;;;;;14.87;100.00;100851.19;2089573;28;44961;-60
2023/12/29 04:33:29;;;;;;;;;1.67;1.00;;;;;14.87;100.00;100849.38;2089108;28;44869;-61
2023/12/29 04:34:29;;;;;;;;;1.00;1.00;;;;;14.87;100.00;100853.88;2088816;28;45349;-61
2023/12/29 04:35:30;;;;;;;;;1.67;1.67;;;;;14.87;100.00;100860.06;2088932;28;44953;-61
2023/12/29 04:36:30;;;;;;;;;1.00;1.00;;;;;14.84;100.00;100849.47;2089368;28;45299;-61
2023/12/29 04:37:30;;;;;;;;;1.00;1.00;;;;;15.25;100.00;100849.75;2089612;28;44952;-62
2023/12/29 04:38:31;;;;;;;;;1.00;1.00;;;;;15.43;100.00;100850.81;2089425;28;44990;-59
2023/12/29 04:39:31;;;;;;;;;2.33;1.00;;;;;15.48;100.00;100849.69;2088795;28;44950;-61
2023/12/29 04:40:31;;;;;;;;;2.00;1.00;;;;;15.53;100.00;100839.69;2088763;28;44880;-59
2023/12/29 04:41:32;;;;;;;;;1.33;1.00;;;;;15.54;100.00;100841.44;2088661;28;44928;-60